Time;durP1;ratioP1;P1;durP2;ratioP2;P2;SDS_P1;SDS_P2;PMS_P1;PMS_P2;Temp;Humidity;BMP_temperature;BMP_pressure;BME280_temperature;BME280_humidity;BME280_pressure;Samples;Min_cycle;Max_cycle;Signal;HPM_P1;HPM_P2
2021/12/11 00:01:45;;;;;;;28.97;20.20;;;;;;;;;;4931868;29;20226;-74
2021/12/11 00:04:14;;;;;;;28.60;19.37;;;;;;;;;;4924440;29;20189;-75
2021/12/11 00:06:42;;;;;;;27.50;19.80;;;;;;;;;;4947731;29;20173;-74
2021/12/11 00:09:14;;;;;;;27.63;19.60;;;;;;;;;;4937880;29;20292;-74
2021/12/11 00:11:42;;;;;;;25.70;18.50;;;;;;;;;;4938691;29;20174;-74
2021/12/11 00:14:09;;;;;;;26.97;17.93;;;;;;;;;;4950261;29;20209;-74
2021/12/11 00:16:36;;;;;;;29.47;19.87;;;;;;;;;;4933114;29;20262;-74
2021/12/11 00:19:06;;;;;;;34.37;21.23;;;;;;;;;;4934518;29;20210;-74
2021/12/11 00:21:32;;;;;;;31.10;21.00;;;;;;;;;;4938477;29;20178;-74
2021/12/11 00:24:04;;;;;;;33.07;21.57;;;;;;;;;;4946511;29;20607;-74
2021/12/11 00:26:32;;;;;;;30.10;20.07;;;;;;;;;;4917887;29;20201;-74
2021/12/11 00:28:58;;;;;;;26.87;18.63;;;;;;;;;;4932176;29;20682;-74
2021/12/11 00:31:29;;;;;;;28.57;19.60;;;;;;;;;;4917020;29;20222;-75
2021/12/11 00:33:56;;;;;;;30.90;20.50;;;;;;;;;;4933960;29;20578;-74
2021/12/11 00:36:23;;;;;;;27.57;19.57;;;;;;;;;;4934265;29;20261;-75
2021/12/11 00:38:50;;;;;;;29.13;20.03;;;;;;;;;;4938029;29;20229;-74
2021/12/11 00:41:18;;;;;;;28.90;19.50;;;;;;;;;;4933791;29;20193;-75
2021/12/11 00:43:45;;;;;;;26.70;18.67;;;;;;;;;;4930613;29;20193;-74
2021/12/11 00:46:23;;;;;;;28.93;20.07;;;;;;;;;;4916473;29;20202;-74
2021/12/11 00:48:49;;;;;;;32.43;21.00;;;;;;;;;;4934328;29;20296;-74
2021/12/11 00:51:17;;;;;;;26.70;18.37;;;;;;;;;;4934711;29;20174;-74
2021/12/11 00:53:55;;;;;;;32.03;21.83;;;;;;;;;;4917027;29;20612;-74
2021/12/11 00:56:26;;;;;;;27.03;18.67;;;;;;;;;;4934649;29;20204;-74
2021/12/11 00:58:53;;;;;;;31.97;20.60;;;;;;;;;;4918223;29;20220;-74
2021/12/11 01:01:27;;;;;;;30.00;20.17;;;;;;;;;;4933164;29;20730;-74
2021/12/11 01:04:02;;;;;;;31.37;20.67;;;;;;;;;;4923916;29;20185;-75
2021/12/11 01:06:31;;;;;;;30.00;19.90;;;;;;;;;;4916864;29;20578;-74
2021/12/11 01:08:59;;;;;;;32.30;21.07;;;;;;;;;;4920661;29;20721;-74
2021/12/11 01:11:31;;;;;;;30.43;20.93;;;;;;;;;;4937381;29;20186;-74
2021/12/11 01:14:11;;;;;;;30.60;20.43;;;;;;;;;;4934526;29;20214;-75
2021/12/11 01:16:40;;;;;;;33.13;21.83;;;;;;;;;;4904241;29;20663;-74
2021/12/11 01:19:07;;;;;;;32.60;21.70;;;;;;;;;;4921232;29;20201;-75
2021/12/11 01:24:13;;;;;;;33.00;22.10;;;;;;;;;;4921152;29;20559;-74
2021/12/11 01:26:49;;;;;;;26.10;18.47;;;;;;;;;;4939866;29;20268;-75
2021/12/11 01:29:16;;;;;;;28.03;19.13;;;;;;;;;;4921633;29;20590;-74
2021/12/11 01:31:43;;;;;;;30.80;20.20;;;;;;;;;;4920706;29;20181;-74
2021/12/11 01:34:10;;;;;;;31.53;20.07;;;;;;;;;;4932514;29;20289;-74
2021/12/11 01:36:36;;;;;;;26.87;18.33;;;;;;;;;;4933561;29;20206;-75
2021/12/11 01:39:05;;;;;;;33.03;21.47;;;;;;;;;;4933603;29;20205;-75
2021/12/11 01:41:32;;;;;;;31.57;20.13;;;;;;;;;;4931334;29;20179;-74
2021/12/11 01:44:00;;;;;;;28.37;19.30;;;;;;;;;;4934662;29;20412;-74
2021/12/11 01:46:28;;;;;;;29.83;20.07;;;;;;;;;;4935963;29;20549;-74
2021/12/11 01:48:56;;;;;;;31.70;21.53;;;;;;;;;;4935382;29;20202;-74
2021/12/11 01:51:34;;;;;;;30.70;20.97;;;;;;;;;;4942652;29;20189;-74
2021/12/11 01:54:04;;;;;;;30.07;19.83;;;;;;;;;;4935146;29;20296;-74
2021/12/11 01:56:32;;;;;;;27.80;18.43;;;;;;;;;;4935351;29;20650;-73
2021/12/11 01:59:07;;;;;;;29.87;19.90;;;;;;;;;;4937478;29;20202;-74
2021/12/11 02:01:36;;;;;;;30.70;19.40;;;;;;;;;;4940015;29;20184;-74
2021/12/11 02:04:05;;;;;;;28.93;18.63;;;;;;;;;;4939532;29;20749;-74
2021/12/11 02:06:32;;;;;;;31.77;19.60;;;;;;;;;;4943910;29;20228;-74
2021/12/11 02:08:58;;;;;;;30.07;19.53;;;;;;;;;;4935580;29;20201;-74
2021/12/11 02:11:26;;;;;;;35.27;22.37;;;;;;;;;;4937324;29;20641;-74
2021/12/11 02:14:00;;;;;;;35.03;23.07;;;;;;;;;;4918993;29;20724;-74
2021/12/11 02:16:27;;;;;;;35.83;23.30;;;;;;;;;;4917194;29;20205;-74
2021/12/11 02:18:55;;;;;;;33.80;21.83;;;;;;;;;;4932243;29;20201;-74
2021/12/11 02:21:26;;;;;;;34.87;22.30;;;;;;;;;;4932206;29;20273;-74
2021/12/11 02:24:08;;;;;;;33.13;21.77;;;;;;;;;;4933261;29;20181;-74
2021/12/11 02:26:35;;;;;;;31.47;20.30;;;;;;;;;;4935892;29;20252;-74
2021/12/11 02:29:06;;;;;;;33.40;20.83;;;;;;;;;;4932586;29;20717;-75
2021/12/11 02:31:36;;;;;;;33.00;20.53;;;;;;;;;;4935215;29;20237;-74
2021/12/11 02:34:09;;;;;;;32.43;20.60;;;;;;;;;;4932125;29;20292;-74
2021/12/11 02:36:58;;;;;;;32.07;21.10;;;;;;;;;;4932381;29;20663;-74
2021/12/11 02:39:33;;;;;;;32.93;21.37;;;;;;;;;;4912113;29;20219;-74
2021/12/11 02:42:09;;;;;;;31.47;20.00;;;;;;;;;;4942702;29;20178;-74
2021/12/11 02:44:38;;;;;;;33.73;20.93;;;;;;;;;;4932919;29;20177;-75
2021/12/11 02:47:12;;;;;;;38.13;22.30;;;;;;;;;;4932088;29;20552;-76
2021/12/11 02:49:45;;;;;;;32.97;20.90;;;;;;;;;;4932389;29;20706;-75
2021/12/11 02:52:17;;;;;;;33.90;21.70;;;;;;;;;;4936931;29;20272;-74
2021/12/11 02:54:46;;;;;;;34.40;21.57;;;;;;;;;;4933895;29;20623;-74
2021/12/11 02:57:18;;;;;;;31.60;19.73;;;;;;;;;;4919445;29;20190;-74
2021/12/11 02:59:45;;;;;;;33.10;20.60;;;;;;;;;;4936038;29;20205;-74
2021/12/11 03:02:20;;;;;;;32.47;20.60;;;;;;;;;;4937539;29;20718;-74
2021/12/11 03:04:52;;;;;;;36.47;20.93;;;;;;;;;;4945274;29;20181;-74
2021/12/11 03:07:21;;;;;;;35.33;21.33;;;;;;;;;;4922365;29;20193;-74
2021/12/11 03:09:49;;;;;;;35.67;21.17;;;;;;;;;;4936322;29;20288;-75
2021/12/11 03:12:16;;;;;;;30.53;19.37;;;;;;;;;;4936264;29;20186;-74
2021/12/11 03:14:43;;;;;;;32.17;20.33;;;;;;;;;;4920088;29;20756;-75
2021/12/11 03:17:11;;;;;;;35.10;21.33;;;;;;;;;;4942669;29;20181;-75
2021/12/11 03:19:39;;;;;;;30.63;19.67;;;;;;;;;;4934191;29;20210;-75
2021/12/11 03:22:07;;;;;;;27.60;18.47;;;;;;;;;;4917682;29;20182;-75
2021/12/11 03:24:33;;;;;;;32.43;20.23;;;;;;;;;;4941761;29;20206;-74
2021/12/11 03:27:00;;;;;;;29.50;19.23;;;;;;;;;;4934811;29;20233;-75
2021/12/11 03:29:28;;;;;;;30.17;19.70;;;;;;;;;;4936194;29;20236;-76
2021/12/11 03:31:54;;;;;;;32.00;20.30;;;;;;;;;;4933965;29;20194;-74
2021/12/11 03:34:23;;;;;;;33.03;21.23;;;;;;;;;;4937457;29;20213;-75
2021/12/11 03:36:49;;;;;;;32.17;20.27;;;;;;;;;;4940026;29;20173;-74
2021/12/11 03:39:17;;;;;;;31.93;19.93;;;;;;;;;;4936061;29;20233;-74
2021/12/11 03:41:46;;;;;;;30.47;18.93;;;;;;;;;;4943793;29;21174;-75
2021/12/11 03:44:12;;;;;;;33.83;20.70;;;;;;;;;;4927648;29;20719;-74
2021/12/11 03:46:39;;;;;;;32.43;20.53;;;;;;;;;;4937948;29;20197;-74
2021/12/11 03:49:13;;;;;;;33.70;21.37;;;;;;;;;;4934422;29;20678;-74
2021/12/11 03:51:41;;;;;;;32.63;20.47;;;;;;;;;;4939348;29;20598;-74
2021/12/11 03:54:09;;;;;;;27.37;18.57;;;;;;;;;;4935965;29;20253;-74
2021/12/11 03:56:35;;;;;;;29.87;19.20;;;;;;;;;;4935141;29;20548;-75
2021/12/11 03:59:08;;;;;;;31.53;20.57;;;;;;;;;;4938517;28;20202;-74
2021/12/11 04:01:36;;;;;;;32.93;21.40;;;;;;;;;;4929032;29;20182;-74
2021/12/11 04:04:06;;;;;;;33.73;20.50;;;;;;;;;;4935693;29;20190;-74
2021/12/11 04:06:32;;;;;;;31.97;20.17;;;;;;;;;;4933773;29;20194;-75
2021/12/11 04:08:59;;;;;;;28.33;18.77;;;;;;;;;;4934181;29;20205;-74
2021/12/11 04:11:30;;;;;;;31.73;19.37;;;;;;;;;;4935441;29;20213;-75
2021/12/11 04:13:59;;;;;;;31.30;19.93;;;;;;;;;;4938842;29;20288;-75
2021/12/11 04:16:26;;;;;;;28.87;19.10;;;;;;;;;;4933208;29;20218;-76
2021/12/11 04:18:52;;;;;;;29.33;19.50;;;;;;;;;;4934733;29;20632;-74
2021/12/11 04:21:19;;;;;;;30.30;19.23;;;;;;;;;;4940354;29;20219;-74
2021/12/11 04:23:45;;;;;;;31.17;20.10;;;;;;;;;;4942680;29;20598;-74
2021/12/11 04:26:11;;;;;;;29.33;18.60;;;;;;;;;;4917128;29;20559;-75
2021/12/11 04:28:39;;;;;;;29.43;18.90;;;;;;;;;;4921522;29;20216;-74
2021/12/11 04:31:08;;;;;;;31.37;20.20;;;;;;;;;;4937049;29;20559;-75
2021/12/11 04:33:38;;;;;;;31.27;20.37;;;;;;;;;;4935620;29;20206;-74
2021/12/11 04:36:05;;;;;;;29.50;19.37;;;;;;;;;;4948622;29;20178;-74
2021/12/11 04:38:32;;;;;;;27.60;19.50;;;;;;;;;;4953139;28;20260;-74
2021/12/11 04:40:59;;;;;;;29.23;19.27;;;;;;;;;;4940295;29;20674;-74
2021/12/11 04:43:26;;;;;;;28.63;18.93;;;;;;;;;;4936243;29;20213;-74
2021/12/11 04:45:59;;;;;;;27.07;18.87;;;;;;;;;;4924369;29;20241;-75
2021/12/11 04:48:37;;;;;;;31.40;20.33;;;;;;;;;;4930385;29;20215;-75
2021/12/11 04:51:19;;;;;;;28.57;19.33;;;;;;;;;;4934881;29;20216;-74
2021/12/11 04:54:18;;;;;;;28.77;18.63;;;;;;;;;;4936670;29;20205;-76
2021/12/11 04:57:07;;;;;;;29.40;18.87;;;;;;;;;;4933290;29;20200;-75
2021/12/11 04:59:51;;;;;;;28.43;18.77;;;;;;;;;;4953191;28;20201;-74
2021/12/11 05:05:02;;;;;;;34.13;21.77;;;;;;;;;;4933288;29;20599;-74
2021/12/11 05:07:39;;;;;;;33.47;21.20;;;;;;;;;;4929119;29;20196;-74
2021/12/11 05:10:22;;;;;;;34.60;21.57;;;;;;;;;;4948466;29;20189;-75
2021/12/11 05:12:51;;;;;;;30.20;19.13;;;;;;;;;;4932317;29;20213;-74
2021/12/11 05:15:28;;;;;;;32.37;20.80;;;;;;;;;;4927924;29;20545;-76
2021/12/11 05:17:55;;;;;;;33.37;21.13;;;;;;;;;;4914666;29;20181;-75
2021/12/11 05:20:22;;;;;;;32.53;20.83;;;;;;;;;;4945984;29;20645;-74
2021/12/11 05:22:49;;;;;;;33.17;19.80;;;;;;;;;;4943910;29;20643;-75
2021/12/11 05:25:15;;;;;;;26.60;18.57;;;;;;;;;;4927376;29;20554;-74
2021/12/11 05:27:42;;;;;;;30.43;19.67;;;;;;;;;;4933077;29;20586;-74
2021/12/11 05:30:11;;;;;;;32.73;21.37;;;;;;;;;;4936644;29;20265;-74
2021/12/11 05:32:38;;;;;;;28.93;18.67;;;;;;;;;;4934571;29;20182;-74
2021/12/11 05:35:06;;;;;;;32.03;20.50;;;;;;;;;;4933864;29;20654;-75
2021/12/11 05:37:32;;;;;;;31.17;20.03;;;;;;;;;;4923540;29;20182;-75
2021/12/11 05:39:58;;;;;;;31.37;20.07;;;;;;;;;;4933354;29;20209;-74
2021/12/11 05:42:24;;;;;;;32.63;21.90;;;;;;;;;;4932008;29;20194;-77
2021/12/11 05:44:50;;;;;;;31.17;19.50;;;;;;;;;;4934452;29;20713;-76
2021/12/11 05:47:17;;;;;;;29.23;19.23;;;;;;;;;;4932862;29;20182;-77
2021/12/11 05:49:44;;;;;;;28.27;18.80;;;;;;;;;;4933359;29;20690;-76
2021/12/11 05:52:11;;;;;;;29.23;19.53;;;;;;;;;;4936503;29;20186;-78
2021/12/11 05:54:38;;;;;;;31.63;20.80;;;;;;;;;;4937469;29;20646;-76
2021/12/11 05:57:07;;;;;;;36.87;23.40;;;;;;;;;;4935380;29;20186;-75
2021/12/11 05:59:34;;;;;;;33.17;21.57;;;;;;;;;;4934661;29;20213;-74
2021/12/11 06:02:05;;;;;;;35.37;23.37;;;;;;;;;;4932637;29;20229;-74
2021/12/11 06:04:33;;;;;;;31.73;21.07;;;;;;;;;;4932919;29;20182;-73
2021/12/11 06:07:00;;;;;;;30.43;21.13;;;;;;;;;;4931591;29;20336;-74
2021/12/11 06:09:27;;;;;;;30.30;19.90;;;;;;;;;;4932588;29;20202;-74
2021/12/11 06:11:55;;;;;;;33.30;20.83;;;;;;;;;;4933122;29;20221;-73
2021/12/11 06:14:21;;;;;;;29.73;19.57;;;;;;;;;;4932487;29;20236;-74
2021/12/11 06:16:48;;;;;;;34.47;22.33;;;;;;;;;;4933174;29;20213;-74
2021/12/11 06:19:19;;;;;;;32.50;21.00;;;;;;;;;;4935748;29;20210;-73
2021/12/11 06:21:45;;;;;;;31.13;19.77;;;;;;;;;;4933049;29;20180;-77
2021/12/11 06:24:12;;;;;;;30.10;19.97;;;;;;;;;;4932111;29;20688;-74
2021/12/11 06:26:38;;;;;;;27.57;18.83;;;;;;;;;;4919132;29;20194;-74
2021/12/11 06:29:04;;;;;;;29.53;20.00;;;;;;;;;;4916950;29;20209;-76
2021/12/11 06:31:31;;;;;;;30.83;19.10;;;;;;;;;;4936630;29;20190;-75
2021/12/11 06:33:57;;;;;;;26.70;17.93;;;;;;;;;;4937093;29;20261;-75
2021/12/11 06:36:24;;;;;;;28.53;19.20;;;;;;;;;;4936625;29;20269;-75
2021/12/11 06:38:52;;;;;;;27.47;19.83;;;;;;;;;;4936947;29;20197;-75
2021/12/11 06:41:19;;;;;;;27.53;18.37;;;;;;;;;;4943294;29;20181;-76
2021/12/11 06:43:46;;;;;;;26.10;18.43;;;;;;;;;;4919736;29;20217;-76
2021/12/11 06:46:12;;;;;;;28.40;18.77;;;;;;;;;;4936309;29;20661;-76
2021/12/11 06:48:38;;;;;;;31.33;19.23;;;;;;;;;;4936499;29;20247;-78
2021/12/11 06:51:05;;;;;;;27.70;18.23;;;;;;;;;;4933630;29;20185;-76
2021/12/11 06:53:36;;;;;;;29.57;19.57;;;;;;;;;;4935040;29;20212;-76
2021/12/11 06:56:04;;;;;;;31.47;20.27;;;;;;;;;;4919615;29;20251;-76
2021/12/11 06:58:31;;;;;;;27.83;18.27;;;;;;;;;;4934865;29;20289;-76
2021/12/11 07:00:58;;;;;;;28.57;19.40;;;;;;;;;;4937676;29;20178;-75
2021/12/11 07:03:24;;;;;;;27.13;18.80;;;;;;;;;;4936340;29;20208;-76
2021/12/11 07:05:51;;;;;;;33.00;21.30;;;;;;;;;;4946580;29;21481;-76
2021/12/11 07:08:17;;;;;;;30.80;20.30;;;;;;;;;;4950968;28;20703;-75
2021/12/11 07:10:44;;;;;;;32.57;19.83;;;;;;;;;;4942956;29;20186;-76
2021/12/11 07:13:11;;;;;;;29.23;19.63;;;;;;;;;;4936482;29;20292;-76
2021/12/11 07:15:37;;;;;;;30.00;19.33;;;;;;;;;;4933267;29;20240;-75
2021/12/11 07:18:04;;;;;;;28.60;19.70;;;;;;;;;;4921741;29;20226;-76
2021/12/11 07:20:30;;;;;;;29.27;19.20;;;;;;;;;;4955724;29;20178;-78
2021/12/11 07:22:57;;;;;;;27.73;18.57;;;;;;;;;;4936618;29;20178;-76
2021/12/11 07:25:29;;;;;;;28.50;19.63;;;;;;;;;;4948944;29;20212;-76
2021/12/11 07:27:56;;;;;;;26.60;18.50;;;;;;;;;;4948402;28;20203;-76
2021/12/11 07:30:23;;;;;;;27.67;18.80;;;;;;;;;;4937829;29;20224;-77
2021/12/11 07:32:51;;;;;;;28.40;20.40;;;;;;;;;;4919546;29;20214;-76
2021/12/11 07:35:17;;;;;;;29.50;20.23;;;;;;;;;;4942006;29;20186;-75
2021/12/11 07:37:49;;;;;;;28.07;18.90;;;;;;;;;;4935195;29;20260;-76
2021/12/11 07:40:16;;;;;;;26.93;18.80;;;;;;;;;;4938191;29;20186;-75
2021/12/11 07:42:42;;;;;;;27.83;19.30;;;;;;;;;;4932007;29;20241;-76
2021/12/11 07:45:08;;;;;;;25.37;17.97;;;;;;;;;;4937078;29;20233;-75
2021/12/11 07:47:35;;;;;;;30.07;20.30;;;;;;;;;;4934236;29;20268;-77
2021/12/11 07:50:01;;;;;;;29.37;20.33;;;;;;;;;;4919565;29;20202;-75
2021/12/11 07:52:27;;;;;;;28.20;19.37;;;;;;;;;;4935366;29;20193;-76
2021/12/11 07:54:54;;;;;;;30.90;20.37;;;;;;;;;;4934262;29;20256;-75
2021/12/11 07:57:20;;;;;;;30.00;21.00;;;;;;;;;;4918093;29;20277;-75
2021/12/11 07:59:46;;;;;;;32.83;22.30;;;;;;;;;;4932819;29;20228;-76
2021/12/11 08:02:12;;;;;;;30.13;20.73;;;;;;;;;;4933235;29;20194;-76
2021/12/11 08:04:38;;;;;;;32.37;22.10;;;;;;;;;;4934584;29;20548;-77
2021/12/11 08:07:05;;;;;;;28.87;19.87;;;;;;;;;;4935091;29;20221;-76
2021/12/11 08:09:31;;;;;;;31.37;21.40;;;;;;;;;;4934791;29;20214;-77
2021/12/11 08:11:57;;;;;;;33.50;22.00;;;;;;;;;;4924013;29;20220;-78
2021/12/11 08:14:23;;;;;;;33.40;22.10;;;;;;;;;;4926480;29;20303;-79
2021/12/11 08:16:53;;;;;;;29.87;20.37;;;;;;;;;;4939947;29;20209;-77
2021/12/11 08:19:21;;;;;;;26.87;19.27;;;;;;;;;;4918055;29;20232;-78
2021/12/11 08:21:49;;;;;;;33.30;23.73;;;;;;;;;;4935031;29;20185;-78
2021/12/11 08:24:16;;;;;;;28.10;20.93;;;;;;;;;;4917987;29;20689;-77
2021/12/11 08:26:42;;;;;;;29.03;20.40;;;;;;;;;;4933745;29;20197;-77
2021/12/11 08:29:10;;;;;;;29.40;21.03;;;;;;;;;;4940370;28;20212;-77
2021/12/11 08:31:37;;;;;;;26.60;19.83;;;;;;;;;;4934633;29;20205;-78
2021/12/11 08:34:03;;;;;;;25.17;18.77;;;;;;;;;;4934050;29;20310;-78
2021/12/11 08:36:30;;;;;;;28.70;19.83;;;;;;;;;;4917619;29;20194;-77
2021/12/11 08:38:58;;;;;;;30.77;20.80;;;;;;;;;;4936553;28;20206;-77
2021/12/11 08:41:27;;;;;;;26.07;18.87;;;;;;;;;;4934026;29;20182;-78
2021/12/11 08:43:59;;;;;;;27.27;19.57;;;;;;;;;;4925660;29;20181;-78
2021/12/11 08:46:29;;;;;;;28.33;19.93;;;;;;;;;;4910656;29;20205;-78
2021/12/11 08:48:57;;;;;;;29.50;21.20;;;;;;;;;;4940982;29;20576;-75
2021/12/11 08:51:36;;;;;;;30.67;21.60;;;;;;;;;;4939833;29;20184;-75
2021/12/11 08:54:03;;;;;;;27.67;19.80;;;;;;;;;;4947378;28;20218;-75
2021/12/11 08:56:30;;;;;;;26.73;19.23;;;;;;;;;;4927381;29;20253;-75
2021/12/11 08:58:57;;;;;;;27.10;20.03;;;;;;;;;;4939063;29;20205;-75
2021/12/11 09:01:44;;;;;;;26.63;18.47;;;;;;;;;;4904003;29;20182;-75
2021/12/11 09:04:15;;;;;;;29.37;21.23;;;;;;;;;;4904526;29;20190;-75
2021/12/11 09:06:50;;;;;;;27.63;20.17;;;;;;;;;;4921560;29;20190;-75
2021/12/11 09:09:20;;;;;;;27.20;19.70;;;;;;;;;;4939279;29;20205;-77
2021/12/11 09:11:48;;;;;;;25.87;19.13;;;;;;;;;;4936486;29;20185;-78
2021/12/11 09:14:24;;;;;;;26.17;19.43;;;;;;;;;;4924966;29;20213;-79
2021/12/11 09:16:53;;;;;;;23.97;18.33;;;;;;;;;;4934943;29;20181;-79
2021/12/11 09:19:25;;;;;;;26.33;19.47;;;;;;;;;;4934609;29;20206;-79
2021/12/11 09:22:04;;;;;;;26.07;19.87;;;;;;;;;;4917450;29;20188;-78
2021/12/11 09:24:41;;;;;;;27.50;19.37;;;;;;;;;;4937170;29;20632;-79
2021/12/11 09:27:13;;;;;;;27.43;19.17;;;;;;;;;;4935844;29;20268;-81
2021/12/11 09:29:59;;;;;;;24.93;18.20;;;;;;;;;;4907323;29;20205;-81
2021/12/11 09:32:41;;;;;;;25.37;19.03;;;;;;;;;;4919000;29;20243;-80
2021/12/11 09:35:10;;;;;;;24.57;17.97;;;;;;;;;;4918779;29;20200;-79
2021/12/11 09:37:38;;;;;;;27.37;20.23;;;;;;;;;;4932336;29;20600;-80
2021/12/11 09:40:07;;;;;;;22.77;18.10;;;;;;;;;;4917709;29;20210;-79
2021/12/11 09:42:33;;;;;;;24.90;18.83;;;;;;;;;;4923666;29;20206;-78
2021/12/11 09:45:02;;;;;;;26.60;18.43;;;;;;;;;;4929362;29;20217;-78
2021/12/11 09:47:31;;;;;;;23.47;17.87;;;;;;;;;;4923865;29;20186;-79
2021/12/11 09:50:03;;;;;;;26.87;18.40;;;;;;;;;;4935747;29;20206;-79
2021/12/11 09:52:29;;;;;;;24.47;19.27;;;;;;;;;;4914699;29;20187;-80
2021/12/11 09:55:01;;;;;;;23.37;18.60;;;;;;;;;;4921204;29;20205;-80
2021/12/11 09:57:29;;;;;;;25.30;18.33;;;;;;;;;;4931716;29;20182;-80
2021/12/11 09:59:57;;;;;;;26.53;18.60;;;;;;;;;;4932752;29;20253;-80
2021/12/11 10:02:25;;;;;;;24.80;18.27;;;;;;;;;;4935079;29;20201;-81
2021/12/11 10:05:00;;;;;;;26.63;19.00;;;;;;;;;;4934077;29;20247;-80
2021/12/11 10:07:38;;;;;;;22.20;17.33;;;;;;;;;;4916051;29;20192;-80
2021/12/11 10:10:16;;;;;;;24.13;16.73;;;;;;;;;;4932591;29;20650;-80
2021/12/11 10:12:45;;;;;;;27.57;19.67;;;;;;;;;;4933623;29;20189;-80
2021/12/11 10:15:17;;;;;;;25.17;19.00;;;;;;;;;;4952276;29;20192;-80
2021/12/11 10:17:46;;;;;;;26.17;19.73;;;;;;;;;;4913603;29;20241;-81
2021/12/11 10:20:17;;;;;;;24.67;18.67;;;;;;;;;;4919558;29;20250;-81
2021/12/11 10:22:43;;;;;;;23.07;17.30;;;;;;;;;;4930096;29;20198;-81
2021/12/11 10:25:18;;;;;;;24.27;18.30;;;;;;;;;;4913876;29;20193;-81
2021/12/11 10:27:44;;;;;;;24.13;18.43;;;;;;;;;;4930471;29;20299;-81
2021/12/11 10:30:15;;;;;;;23.73;17.23;;;;;;;;;;4928064;29;20201;-81
2021/12/11 10:32:41;;;;;;;24.23;16.67;;;;;;;;;;4930315;29;20613;-80
2021/12/11 10:35:11;;;;;;;24.13;16.77;;;;;;;;;;4930480;29;20268;-79
2021/12/11 10:37:38;;;;;;;22.57;16.47;;;;;;;;;;4929661;29;20228;-81
2021/12/11 10:40:14;;;;;;;26.47;18.00;;;;;;;;;;4929528;29;20174;-81
2021/12/11 10:42:41;;;;;;;24.37;18.03;;;;;;;;;;4927748;29;20880;-81
2021/12/11 10:45:09;;;;;;;24.17;17.13;;;;;;;;;;4929842;29;20316;-81
2021/12/11 10:47:38;;;;;;;23.03;17.03;;;;;;;;;;4930298;29;20189;-81
2021/12/11 10:50:10;;;;;;;27.47;18.83;;;;;;;;;;4930379;29;20185;-81
2021/12/11 10:52:37;;;;;;;22.37;17.50;;;;;;;;;;4929362;29;20215;-81
2021/12/11 10:55:05;;;;;;;22.10;16.47;;;;;;;;;;4912982;29;20217;-80
2021/12/11 10:57:33;;;;;;;22.37;16.60;;;;;;;;;;4911783;29;20174;-80
2021/12/11 10:59:59;;;;;;;20.50;16.23;;;;;;;;;;4928038;29;20198;-80
2021/12/11 11:02:30;;;;;;;22.43;15.87;;;;;;;;;;4930370;29;20189;-80
2021/12/11 11:04:59;;;;;;;21.80;16.40;;;;;;;;;;4930863;29;20237;-79
2021/12/11 11:07:26;;;;;;;22.90;15.90;;;;;;;;;;4929661;29;20581;-79
2021/12/11 11:09:54;;;;;;;20.23;15.50;;;;;;;;;;4929925;29;20241;-79
2021/12/11 11:12:22;;;;;;;22.53;16.57;;;;;;;;;;4936028;29;20580;-79
2021/12/11 11:14:49;;;;;;;21.40;15.77;;;;;;;;;;4930042;29;20197;-80
2021/12/11 11:17:17;;;;;;;20.53;15.73;;;;;;;;;;4931100;29;20190;-80
2021/12/11 11:19:45;;;;;;;21.87;15.83;;;;;;;;;;4918278;29;20209;-79
2021/12/11 11:22:14;;;;;;;21.90;15.87;;;;;;;;;;4933665;29;20190;-79
2021/12/11 11:24:43;;;;;;;23.07;15.97;;;;;;;;;;4916854;29;20208;-79
2021/12/11 11:27:10;;;;;;;19.97;14.97;;;;;;;;;;4928787;29;20213;-79
2021/12/11 11:29:38;;;;;;;23.07;16.90;;;;;;;;;;4936551;29;20206;-79
2021/12/11 11:32:07;;;;;;;21.53;15.33;;;;;;;;;;4916103;29;20186;-79
2021/12/11 11:34:40;;;;;;;20.57;15.47;;;;;;;;;;4916580;29;20217;-79
2021/12/11 11:37:06;;;;;;;22.73;16.47;;;;;;;;;;4931849;29;20185;-79
2021/12/11 11:39:33;;;;;;;22.60;16.00;;;;;;;;;;4933234;29;20896;-79
2021/12/11 11:42:01;;;;;;;21.07;16.03;;;;;;;;;;4933286;29;20685;-79
2021/12/11 11:44:29;;;;;;;19.83;14.80;;;;;;;;;;4933340;29;20214;-78
2021/12/11 11:46:56;;;;;;;19.27;14.37;;;;;;;;;;4931598;29;20225;-79
2021/12/11 11:49:23;;;;;;;20.53;15.47;;;;;;;;;;4931755;29;20261;-79
2021/12/11 11:51:54;;;;;;;20.13;14.13;;;;;;;;;;4933337;29;20198;-79
2021/12/11 11:54:22;;;;;;;18.17;13.90;;;;;;;;;;4931754;29;20205;-79
2021/12/11 11:56:51;;;;;;;19.07;14.10;;;;;;;;;;4934002;29;20185;-79
2021/12/11 11:59:18;;;;;;;19.93;15.43;;;;;;;;;;4936759;29;20689;-79
2021/12/11 12:01:49;;;;;;;21.00;14.90;;;;;;;;;;4930621;29;20266;-79
2021/12/11 12:04:17;;;;;;;20.93;14.77;;;;;;;;;;4931305;29;20198;-79
2021/12/11 12:06:47;;;;;;;20.10;14.50;;;;;;;;;;4915495;29;20205;-79
2021/12/11 12:09:14;;;;;;;18.87;14.40;;;;;;;;;;4915403;29;20326;-79
2021/12/11 12:11:40;;;;;;;19.57;14.23;;;;;;;;;;4931837;29;20261;-79
2021/12/11 12:14:08;;;;;;;18.60;13.83;;;;;;;;;;4919593;29;20564;-79
2021/12/11 12:16:36;;;;;;;17.00;12.70;;;;;;;;;;4917095;29;20233;-79
2021/12/11 12:19:04;;;;;;;16.90;13.47;;;;;;;;;;4932259;29;20210;-79
2021/12/11 12:21:31;;;;;;;17.20;13.77;;;;;;;;;;4912598;29;20612;-78
2021/12/11 12:23:57;;;;;;;18.10;13.93;;;;;;;;;;4929594;29;20525;-79
2021/12/11 12:26:25;;;;;;;16.77;12.60;;;;;;;;;;4932065;29;20228;-77
2021/12/11 12:28:52;;;;;;;15.93;11.90;;;;;;;;;;4926880;29;20217;-79
2021/12/11 12:31:23;;;;;;;18.13;12.63;;;;;;;;;;4915922;29;20193;-77
2021/12/11 12:33:50;;;;;;;16.80;13.10;;;;;;;;;;4931459;29;20234;-79
2021/12/11 12:36:18;;;;;;;17.23;12.23;;;;;;;;;;4917647;29;20197;-79
2021/12/11 12:38:46;;;;;;;16.13;11.53;;;;;;;;;;4914824;29;20202;-79
2021/12/11 12:41:15;;;;;;;14.27;10.67;;;;;;;;;;4932305;29;20674;-79
2021/12/11 12:46:13;;;;;;;18.70;14.03;;;;;;;;;;4928718;29;20198;-79
2021/12/11 12:48:39;;;;;;;16.77;12.93;;;;;;;;;;4918183;29;20473;-80
2021/12/11 12:51:08;;;;;;;14.70;11.97;;;;;;;;;;4936096;29;20217;-75
2021/12/11 12:53:35;;;;;;;14.93;10.93;;;;;;;;;;4936365;29;20704;-73
2021/12/11 12:56:05;;;;;;;17.47;13.93;;;;;;;;;;4939178;29;20595;-74
2021/12/11 12:58:34;;;;;;;18.97;14.80;;;;;;;;;;4955538;28;20193;-76
2021/12/11 13:01:11;;;;;;;23.00;16.87;;;;;;;;;;4905088;29;20189;-76
2021/12/11 13:03:39;;;;;;;21.60;16.30;;;;;;;;;;4914335;29;20198;-76
2021/12/11 13:06:09;;;;;;;20.67;15.10;;;;;;;;;;4904325;29;20191;-76
2021/12/11 13:08:49;;;;;;;22.13;16.57;;;;;;;;;;4900884;29;20213;-77
2021/12/11 13:11:30;;;;;;;24.20;17.10;;;;;;;;;;4931796;29;20689;-76
2021/12/11 13:13:57;;;;;;;22.53;15.90;;;;;;;;;;4935443;29;20209;-74
2021/12/11 13:16:26;;;;;;;24.40;17.30;;;;;;;;;;4930653;29;20666;-73
2021/12/11 13:19:01;;;;;;;21.73;16.53;;;;;;;;;;4913288;29;20206;-73
2021/12/11 13:21:45;;;;;;;24.63;17.20;;;;;;;;;;4927181;29;20195;-73
2021/12/11 13:24:13;;;;;;;21.17;15.67;;;;;;;;;;4917336;29;20209;-74
2021/12/11 13:26:41;;;;;;;20.40;15.57;;;;;;;;;;4927801;29;20305;-73
2021/12/11 13:29:10;;;;;;;20.97;15.47;;;;;;;;;;4928194;29;20209;-74
2021/12/11 13:32:00;;;;;;;21.27;15.83;;;;;;;;;;4932415;29;20185;-74
2021/12/11 13:34:39;;;;;;;23.17;16.63;;;;;;;;;;4931671;29;20221;-74
2021/12/11 13:37:08;;;;;;;20.27;15.40;;;;;;;;;;4917347;29;20213;-74
2021/12/11 13:39:34;;;;;;;23.80;17.37;;;;;;;;;;4932328;28;20209;-74
2021/12/11 13:42:05;;;;;;;23.97;16.27;;;;;;;;;;4931784;29;20185;-74
2021/12/11 13:44:33;;;;;;;22.20;15.63;;;;;;;;;;4929979;29;20189;-74
2021/12/11 13:47:00;;;;;;;25.73;17.83;;;;;;;;;;4926830;29;20209;-72
2021/12/11 13:49:27;;;;;;;22.93;15.10;;;;;;;;;;4931656;29;20231;-72
2021/12/11 13:51:56;;;;;;;22.50;16.40;;;;;;;;;;4932370;29;20221;-73
2021/12/11 13:54:23;;;;;;;21.70;15.67;;;;;;;;;;4918359;29;20218;-72
2021/12/11 13:56:50;;;;;;;23.03;16.57;;;;;;;;;;4929496;29;20274;-72
2021/12/11 13:59:17;;;;;;;21.57;15.47;;;;;;;;;;4922929;29;20694;-72
2021/12/11 14:01:44;;;;;;;21.97;15.70;;;;;;;;;;4927403;29;20589;-73
2021/12/11 14:04:12;;;;;;;21.93;15.60;;;;;;;;;;4927041;29;20198;-72
2021/12/11 14:06:47;;;;;;;24.10;16.53;;;;;;;;;;4930260;29;20197;-72
2021/12/11 14:09:15;;;;;;;21.50;15.93;;;;;;;;;;4927066;29;20209;-72
2021/12/11 14:11:41;;;;;;;22.10;16.47;;;;;;;;;;4927159;29;20181;-72
2021/12/11 14:14:09;;;;;;;22.83;16.43;;;;;;;;;;4925744;29;20226;-73
2021/12/11 14:16:36;;;;;;;21.03;15.77;;;;;;;;;;4923952;29;20198;-72
2021/12/11 14:19:02;;;;;;;21.20;14.50;;;;;;;;;;4924792;29;20210;-73
2021/12/11 14:21:29;;;;;;;19.90;14.30;;;;;;;;;;4922338;29;20206;-73
2021/12/11 14:23:55;;;;;;;19.53;14.60;;;;;;;;;;4921147;29;20277;-73
2021/12/11 14:26:23;;;;;;;20.20;15.03;;;;;;;;;;4917275;29;20677;-73
2021/12/11 14:28:54;;;;;;;17.97;14.47;;;;;;;;;;4910250;29;20600;-73
2021/12/11 14:31:21;;;;;;;19.33;14.17;;;;;;;;;;4925081;29;20190;-73
2021/12/11 14:33:48;;;;;;;20.07;14.77;;;;;;;;;;4924409;29;20293;-73
2021/12/11 14:36:16;;;;;;;15.27;11.50;;;;;;;;;;4925966;29;20189;-73